Select Airport:
Chesapeake Regional Airport
Last updated: 12 minutes ago
Flight conditions: VFR
Visibility: 10.0 statute miles
Sky Conditions: Clear
Wind From:
Wind speed: 0 knots (0 mph)
Temperature: 0.1°C (32.18°F)
Dew Point: -0.5°C (31.1°F)
Altimiter setting: 30.11 in-hg
WX phone: 1-757-204-4290
WX freq: 123.675 MHz
No wind, all runways available.
If at an uncontrolled airport, be sure to listen carefully to the CTAF for the runway(s) in use.
KCPK 241015Z AUTO 00000KT 10SM CLR 00/00 A3011 RMK AO2 T00011005
FOR REFERENCE USE ONLY, DATA MAY NOT BE CURRENT.
ALWAYS CHECK FOR UP TO DATE INFORMATION.